createdAt,value
2022-11-09T00:01:09.281Z,8.07
2022-11-09T00:03:38.793Z,7.88
2022-11-09T00:06:08.309Z,7.65
2022-11-09T00:08:39.321Z,7.53
2022-11-09T00:11:09.273Z,7.40
2022-11-09T00:13:38.819Z,7.60
2022-11-09T00:16:12.022Z,7.85
2022-11-09T00:18:45.957Z,7.70
2022-11-09T00:21:16.234Z,8.48
2022-11-09T00:23:45.785Z,8.07
2022-11-09T00:26:16.840Z,7.90
2022-11-09T00:31:19.069Z,7.90
2022-11-09T00:33:50.699Z,7.97
2022-11-09T00:36:20.643Z,8.13
2022-11-09T00:38:51.478Z,7.45
2022-11-09T00:41:20.927Z,8.02
2022-11-09T00:43:50.469Z,8.70
2022-11-09T00:46:22.686Z,7.97
2022-11-09T00:48:52.420Z,7.75
2022-11-09T00:51:21.943Z,8.25
2022-11-09T00:53:54.649Z,8.40
2022-11-09T00:56:24.584Z,8.10
2022-11-09T00:58:55.763Z,8.85
2022-11-09T01:03:57.366Z,8.30
2022-11-09T01:06:27.592Z,8.63
2022-11-09T01:08:57.128Z,8.83
2022-11-09T01:11:26.856Z,8.20
2022-11-09T01:13:56.311Z,9.00
2022-11-09T01:16:28.421Z,9.65
2022-11-09T01:18:58.056Z,9.45
2022-11-09T01:21:27.762Z,8.30
2022-11-09T01:23:58.533Z,8.93
2022-11-09T01:26:28.129Z,9.75
2022-11-09T01:28:57.624Z,9.77
2022-11-09T01:31:29.723Z,10.63
2022-11-09T01:33:59.202Z,10.05
2022-11-09T01:36:28.660Z,10.30
2022-11-09T01:38:58.166Z,10.10
2022-11-09T01:41:28.614Z,9.70
2022-11-09T01:44:08.920Z,10.00
2022-11-09T01:46:43.591Z,10.13
2022-11-09T01:49:16.135Z,9.68
2022-11-09T01:51:46.809Z,9.23
2022-11-09T01:54:18.166Z,9.85
2022-11-09T01:56:47.727Z,11.18
2022-11-09T01:59:18.570Z,10.50
2022-11-09T02:01:50.658Z,10.23
2022-11-09T02:04:28.912Z,9.40
2022-11-09T02:06:58.665Z,9.80
2022-11-09T02:09:29.658Z,9.60
2022-11-09T02:11:59.127Z,9.25
2022-11-09T02:14:29.108Z,9.57
2022-11-09T02:17:01.115Z,9.77
2022-11-09T02:19:30.619Z,9.52
2022-11-09T02:22:02.643Z,9.77
2022-11-09T02:24:32.102Z,10.38
2022-11-09T02:27:01.570Z,9.40
2022-11-09T02:29:32.153Z,9.80
2022-11-09T02:32:03.427Z,9.88
2022-11-09T02:34:33.180Z,8.43
2022-11-09T02:37:05.237Z,9.68
2022-11-09T02:39:34.719Z,9.73
2022-11-09T02:42:10.064Z,9.25
2022-11-09T02:44:41.440Z,9.02
2022-11-09T02:49:40.139Z,9.57
2022-11-09T02:52:12.172Z,9.75
2022-11-09T02:54:41.606Z,10.18
2022-11-09T02:57:11.086Z,10.00
2022-11-09T02:59:40.578Z,9.80
2022-11-09T03:02:10.073Z,10.40
2022-11-09T03:04:39.545Z,9.27
2022-11-09T03:07:09.704Z,9.98
2022-11-09T03:09:41.835Z,10.63
2022-11-09T03:12:23.619Z,10.15
2022-11-09T03:14:53.077Z,9.82
2022-11-09T03:17:22.555Z,10.75
2022-11-09T03:19:52.017Z,10.20
2022-11-09T03:22:21.520Z,9.90
2022-11-09T03:24:53.549Z,10.88
2022-11-09T03:27:23.001Z,9.35
2022-11-09T03:29:52.474Z,10.18
2022-11-09T03:32:21.942Z,9.60
2022-11-09T03:34:51.804Z,10.18
2022-11-09T03:37:21.299Z,10.57
2022-11-09T03:39:53.579Z,10.50
2022-11-09T03:42:23.010Z,10.50
2022-11-09T03:44:52.562Z,9.88
2022-11-09T03:47:22.036Z,10.77
2022-11-09T03:49:51.500Z,10.60
2022-11-09T03:52:20.956Z,11.25
2022-11-09T03:54:52.977Z,10.65
2022-11-09T03:57:22.401Z,11.10
2022-11-09T03:59:51.849Z,9.35
2022-11-09T04:02:21.290Z,11.02
2022-11-09T04:04:50.738Z,10.23
2022-11-09T04:07:20.223Z,10.80
2022-11-09T04:09:49.754Z,10.45
2022-11-09T04:12:21.784Z,9.75
2022-11-09T04:14:51.243Z,10.43
2022-11-09T04:17:20.683Z,10.50
2022-11-09T04:19:50.178Z,10.70
2022-11-09T04:22:19.617Z,10.43
2022-11-09T04:24:49.151Z,9.00
2022-11-09T04:27:21.239Z,9.57
2022-11-09T04:29:50.717Z,9.93
2022-11-09T04:32:20.164Z,10.43
2022-11-09T04:34:49.627Z,10.48
2022-11-09T04:37:19.099Z,9.75
2022-11-09T04:39:48.583Z,10.07
2022-11-09T04:42:18.044Z,10.88
2022-11-09T04:44:50.106Z,10.82
2022-11-09T04:47:19.539Z,10.23
2022-11-09T04:49:49.004Z,10.95
2022-11-09T04:52:18.471Z,11.88
2022-11-09T04:54:47.881Z,11.80
2022-11-09T04:57:17.301Z,12.05
2022-11-09T04:59:46.747Z,11.90
2022-11-09T05:02:18.839Z,10.95
2022-11-09T05:04:48.278Z,11.68
2022-11-09T05:07:17.749Z,12.27
2022-11-09T05:09:47.232Z,12.55
2022-11-09T05:12:16.647Z,12.40
2022-11-09T05:14:46.088Z,11.57
2022-11-09T05:17:18.157Z,9.68
2022-11-09T05:19:48.862Z,9.50
2022-11-09T05:22:34.749Z,9.30
2022-11-09T05:25:04.252Z,10.85
2022-11-09T05:27:33.693Z,10.77
2022-11-09T05:30:03.155Z,11.30
2022-11-09T05:32:35.242Z,10.88
2022-11-09T05:35:04.814Z,11.05
2022-11-09T05:37:34.480Z,10.95
2022-11-09T05:40:04.072Z,9.98
2022-11-09T05:42:33.572Z,10.48
2022-11-09T05:45:28.012Z,14.25
2022-11-09T05:47:55.124Z,13.55
2022-11-09T05:50:24.579Z,10.48
2022-11-09T05:52:54.506Z,10.02
2022-11-09T05:55:23.970Z,13.63
2022-11-09T05:57:53.407Z,8.93
2022-11-09T06:00:24.047Z,10.85
2022-11-09T06:02:56.107Z,10.18
2022-11-09T06:05:25.766Z,10.88
2022-11-09T06:07:55.223Z,9.55
2022-11-09T06:10:24.699Z,9.13
2022-11-09T06:12:54.158Z,9.75
2022-11-09T06:15:24.230Z,9.43
2022-11-09T06:17:57.002Z,9.48
2022-11-09T06:20:26.789Z,8.80
2022-11-09T06:23:02.552Z,9.02
2022-11-09T06:25:33.648Z,9.07
2022-11-09T06:28:03.209Z,8.82
2022-11-09T06:30:32.712Z,8.40
2022-11-09T06:33:05.267Z,9.07
2022-11-09T06:35:34.940Z,8.13
2022-11-09T06:38:04.395Z,8.35
2022-11-09T06:40:33.845Z,7.82
2022-11-09T06:43:03.283Z,7.25
2022-11-09T06:45:33.072Z,6.85
2022-11-09T06:48:06.117Z,6.70
2022-11-09T06:50:36.058Z,6.82
2022-11-09T06:53:07.835Z,7.40
2022-11-09T06:55:37.672Z,8.15
2022-11-09T06:58:08.421Z,13.20
2022-11-09T07:00:37.953Z,8.23
2022-11-09T07:03:09.977Z,8.60
2022-11-09T07:05:40.868Z,8.10
2022-11-09T07:08:10.322Z,8.13
2022-11-09T07:10:39.771Z,8.48
2022-11-09T07:13:09.429Z,8.57
2022-11-09T07:15:39.142Z,8.30
2022-11-09T07:18:13.213Z,9.65
2022-11-09T07:20:42.754Z,9.25
2022-11-09T07:23:12.226Z,8.30
2022-11-09T07:25:41.723Z,8.90
2022-11-09T07:28:11.491Z,8.25
2022-11-09T07:30:41.042Z,8.15
2022-11-09T07:33:18.151Z,7.30
2022-11-09T07:35:47.681Z,7.40
2022-11-09T07:38:19.645Z,7.15
2022-11-09T07:40:49.099Z,7.30
2022-11-09T07:43:19.115Z,7.13
2022-11-09T07:45:48.800Z,8.20
2022-11-09T07:48:20.866Z,8.27
2022-11-09T07:50:50.326Z,8.63
2022-11-09T07:53:21.509Z,8.45
2022-11-09T07:55:59.276Z,8.07
2022-11-09T07:58:28.738Z,8.05
2022-11-09T08:00:59.346Z,8.18
2022-11-09T08:03:31.361Z,8.73
2022-11-09T08:06:03.621Z,8.20
2022-11-09T08:08:33.103Z,8.73
2022-11-09T08:11:02.562Z,9.43
2022-11-09T08:13:32.050Z,9.48
2022-11-09T08:16:03.715Z,8.98
2022-11-09T08:18:35.765Z,9.68
2022-11-09T08:21:05.892Z,9.70
2022-11-09T08:23:35.356Z,9.70
2022-11-09T08:26:05.165Z,8.68
2022-11-09T08:28:34.622Z,7.00
2022-11-09T08:31:05.539Z,6.13
2022-11-09T08:33:38.545Z,6.07
2022-11-09T08:36:12.660Z,6.47
2022-11-09T08:38:42.141Z,6.00
2022-11-09T08:41:13.626Z,5.50
2022-11-09T08:43:43.688Z,5.88
2022-11-09T08:46:13.379Z,5.53
2022-11-09T08:48:45.395Z,5.80
2022-11-09T08:51:14.867Z,4.80
2022-11-09T08:53:44.325Z,5.20
2022-11-09T08:56:18.379Z,4.97
2022-11-09T08:58:47.892Z,5.13
2022-11-09T09:01:17.859Z,4.60
2022-11-09T09:03:50.059Z,4.57
2022-11-09T09:06:19.545Z,4.60
2022-11-09T09:08:49.169Z,4.05
2022-11-09T09:11:18.846Z,5.20
2022-11-09T09:13:48.308Z,3.30
2022-11-09T09:16:18.419Z,4.07
2022-11-09T09:18:50.434Z,4.30
2022-11-09T09:21:19.884Z,4.60
2022-11-09T09:23:50.291Z,3.75
2022-11-09T09:26:19.807Z,3.90
2022-11-09T09:28:49.292Z,3.10
2022-11-09T09:31:19.191Z,2.70
2022-11-09T09:33:51.378Z,2.90
2022-11-09T09:36:21.858Z,2.17
2022-11-09T09:38:53.289Z,2.50
2022-11-09T09:41:25.679Z,2.70
2022-11-09T09:43:56.939Z,2.42
2022-11-09T09:46:28.151Z,2.58
2022-11-09T09:49:04.522Z,2.10
2022-11-09T09:51:36.870Z,2.00
2022-11-09T09:54:08.809Z,1.85
2022-11-09T09:56:41.060Z,1.50
2022-11-09T09:59:15.015Z,2.00
2022-11-09T10:01:46.324Z,1.80
2022-11-09T10:04:21.069Z,1.80
2022-11-09T10:07:03.360Z,1.63
2022-11-09T10:09:48.799Z,1.67
2022-11-09T10:12:21.074Z,1.80
2022-11-09T10:15:03.376Z,2.00
2022-11-09T10:17:38.413Z,1.80
2022-11-09T10:20:22.255Z,2.00
2022-11-09T10:22:56.563Z,1.80
2022-11-09T10:25:50.359Z,2.05
2022-11-09T10:28:18.462Z,1.77
2022-11-09T10:30:48.092Z,1.90
2022-11-09T10:33:20.875Z,1.90
2022-11-09T10:35:56.174Z,1.85
2022-11-09T10:38:27.401Z,1.77
2022-11-09T10:40:59.310Z,1.85
2022-11-09T10:43:29.025Z,1.90
2022-11-09T10:46:05.001Z,1.90
2022-11-09T10:48:35.697Z,1.65
2022-11-09T10:51:07.758Z,1.80
2022-11-09T10:53:37.438Z,1.88
2022-11-09T10:56:20.326Z,1.80
2022-11-09T10:58:51.739Z,1.63
2022-11-09T11:01:22.911Z,1.90
2022-11-09T11:03:53.480Z,1.60
2022-11-09T11:06:31.646Z,1.50
2022-11-09T11:09:16.933Z,1.52
2022-11-09T11:11:46.362Z,1.50
2022-11-09T11:14:22.668Z,1.63
2022-11-09T11:16:53.486Z,1.60
2022-11-09T11:19:37.050Z,1.70
2022-11-09T11:22:27.356Z,1.60
2022-11-09T11:24:58.295Z,1.60
2022-11-09T11:27:32.061Z,1.60
2022-11-09T11:30:10.454Z,1.63
2022-11-09T11:32:41.333Z,2.25
2022-11-09T11:35:17.347Z,1.60
2022-11-09T11:37:54.330Z,1.67
2022-11-09T11:40:28.195Z,1.40
2022-11-09T11:43:21.037Z,1.67
2022-11-09T11:45:53.901Z,1.58
2022-11-09T11:48:41.913Z,1.73
2022-11-09T11:51:12.428Z,1.70
2022-11-09T11:53:56.405Z,1.80
2022-11-09T11:56:28.737Z,1.60
2022-11-09T11:59:20.801Z,1.70
2022-11-09T12:01:58.071Z,2.00
2022-11-09T12:04:50.316Z,1.70
2022-11-09T12:07:27.397Z,2.13
2022-11-09T12:10:11.870Z,1.80
2022-11-09T12:12:45.127Z,1.60
2022-11-09T12:15:24.164Z,1.73
2022-11-09T12:17:59.116Z,1.67
2022-11-09T12:20:31.693Z,1.70
2022-11-09T12:23:11.599Z,1.90
2022-11-09T12:25:46.869Z,1.90
2022-11-09T12:28:27.837Z,1.75
2022-11-09T12:31:05.565Z,1.90
2022-11-09T12:33:43.643Z,1.52
2022-11-09T12:36:15.579Z,1.40
2022-11-09T12:38:53.445Z,1.55
2022-11-09T12:41:25.520Z,1.60
2022-11-09T12:43:56.354Z,1.63
2022-11-09T12:46:29.293Z,1.60
2022-11-09T12:48:58.922Z,1.70
2022-11-09T12:51:28.620Z,1.80
2022-11-09T12:53:58.189Z,1.70
2022-11-09T12:56:32.107Z,1.80
2022-11-09T12:59:22.381Z,1.98
2022-11-09T13:01:56.117Z,1.80
2022-11-09T13:04:26.374Z,2.00
2022-11-09T13:07:29.230Z,1.70
2022-11-09T13:09:59.628Z,1.75
2022-11-09T13:12:42.655Z,1.67
2022-11-09T13:15:20.345Z,1.70
2022-11-09T13:17:56.679Z,1.73
2022-11-09T13:20:55.504Z,1.95
2022-11-09T13:24:01.620Z,1.90
2022-11-09T13:26:58.882Z,1.90
2022-11-09T13:29:31.649Z,1.60
2022-11-09T13:32:06.455Z,1.40
2022-11-09T13:34:42.722Z,1.70
2022-11-09T13:37:39.957Z,1.65
2022-11-09T13:40:41.891Z,1.70
2022-11-09T13:43:19.971Z,1.90
2022-11-09T13:45:53.049Z,1.50
2022-11-09T13:48:45.750Z,1.63
2022-11-09T13:51:16.494Z,1.55
2022-11-09T13:53:57.503Z,1.80
2022-11-09T13:56:35.193Z,1.60
2022-11-09T13:59:09.460Z,1.80
2022-11-09T14:01:50.228Z,1.60
2022-11-09T14:04:27.342Z,1.83
2022-11-09T14:07:04.287Z,1.60
2022-11-09T14:09:37.752Z,1.75
2022-11-09T14:12:14.441Z,1.65
2022-11-09T14:15:13.939Z,1.45
2022-11-09T14:17:49.513Z,1.60
2022-11-09T14:20:24.359Z,1.90
2022-11-09T14:22:53.798Z,1.70
2022-11-09T14:25:23.925Z,1.70
2022-11-09T14:27:57.357Z,2.10
2022-11-09T14:30:28.014Z,2.00
2022-11-09T14:33:00.907Z,1.88
2022-11-09T14:35:33.512Z,1.98
2022-11-09T14:38:04.284Z,1.83
2022-11-09T14:40:34.864Z,1.83
2022-11-09T14:43:05.333Z,1.70
2022-11-09T14:45:34.853Z,1.83
2022-11-09T14:48:07.580Z,1.80
2022-11-09T14:50:39.200Z,1.75
2022-11-09T14:53:08.660Z,1.70
2022-11-09T14:55:39.930Z,1.75
2022-11-09T14:58:12.077Z,1.80
2022-11-09T15:11:33.670Z,1.80
2022-11-09T15:14:03.122Z,1.95
2022-11-09T15:16:33.489Z,1.92
2022-11-09T15:19:03.003Z,2.28
2022-11-09T15:21:37.881Z,2.28
2022-11-09T15:24:16.915Z,1.90
2022-11-09T15:26:49.515Z,1.92
2022-11-09T15:29:40.610Z,1.85
2022-11-09T15:32:16.151Z,2.13
2022-11-09T15:34:47.441Z,2.35
2022-11-09T15:37:28.106Z,1.80
2022-11-09T15:39:57.658Z,2.10
2022-11-09T15:42:29.811Z,2.20
2022-11-09T15:45:00.408Z,1.80
2022-11-09T15:47:35.422Z,2.20
2022-11-09T15:50:07.209Z,2.00
2022-11-09T15:52:36.707Z,2.22
2022-11-09T15:55:06.600Z,2.53
2022-11-09T15:57:38.674Z,2.50
2022-11-09T16:00:13.487Z,2.28
2022-11-09T16:02:46.077Z,2.67
2022-11-09T16:05:15.760Z,2.67
2022-11-09T16:07:51.422Z,3.00
2022-11-09T16:10:23.321Z,3.08
2022-11-09T16:12:56.070Z,3.30
2022-11-09T16:15:25.626Z,5.82
2022-11-09T16:17:55.251Z,4.00
2022-11-09T16:20:24.763Z,2.90
2022-11-09T16:22:54.251Z,2.53
2022-11-09T16:25:23.849Z,2.70
2022-11-09T16:27:56.210Z,3.03
2022-11-09T16:30:25.710Z,3.13
2022-11-09T16:32:55.656Z,4.30
2022-11-09T16:35:27.802Z,6.72
2022-11-09T16:37:58.111Z,5.63
2022-11-09T16:40:29.037Z,4.10
2022-11-09T16:43:01.834Z,4.07
2022-11-09T16:45:33.668Z,4.85
2022-11-09T16:48:03.284Z,4.50
2022-11-09T16:50:32.767Z,4.80
2022-11-09T16:53:02.226Z,4.70
2022-11-09T16:55:31.826Z,4.85
2022-11-09T16:58:04.398Z,4.47
2022-11-09T17:00:55.706Z,4.18
2022-11-09T17:03:23.334Z,4.15
2022-11-09T17:05:52.806Z,3.75
2022-11-09T17:08:22.873Z,4.55
2022-11-09T17:10:52.619Z,4.80
2022-11-09T17:13:24.693Z,4.07
2022-11-09T17:15:54.612Z,4.00
2022-11-09T17:18:24.137Z,4.93
2022-11-09T17:20:53.699Z,5.68
2022-11-09T17:23:23.168Z,6.60
2022-11-09T17:25:59.164Z,5.70
2022-11-09T17:28:31.236Z,5.50
2022-11-09T17:31:00.696Z,5.70
2022-11-09T17:33:30.157Z,5.97
2022-11-09T17:36:02.729Z,3.85
2022-11-09T17:38:32.243Z,3.10
2022-11-09T17:41:06.013Z,3.45
2022-11-09T17:43:42.443Z,4.13
2022-11-09T17:46:13.545Z,6.53
2022-11-09T17:51:12.879Z,5.57
2022-11-09T17:53:42.439Z,4.40
2022-11-09T17:56:12.503Z,3.60
2022-11-09T17:58:45.576Z,2.85
2022-11-09T18:01:16.022Z,2.72
2022-11-09T18:03:45.742Z,2.80
2022-11-09T18:06:16.005Z,2.80
2022-11-09T18:08:45.506Z,3.65
2022-11-09T18:11:15.044Z,3.40
2022-11-09T18:13:47.235Z,4.95
2022-11-09T18:16:18.032Z,4.50
2022-11-09T18:18:47.555Z,3.50
2022-11-09T18:21:18.203Z,3.70
2022-11-09T18:23:48.051Z,3.60
2022-11-09T18:26:17.563Z,5.40
2022-11-09T18:28:49.601Z,5.38
2022-11-09T18:31:19.179Z,4.53
2022-11-09T18:33:48.710Z,9.07
2022-11-09T18:36:19.761Z,8.60
2022-11-09T18:41:21.965Z,5.38
2022-11-09T18:43:54.260Z,4.20
2022-11-09T18:46:23.965Z,6.43
2022-11-09T18:48:53.656Z,10.32
2022-11-09T18:51:23.385Z,6.50
2022-11-09T18:53:52.863Z,8.40
2022-11-09T18:56:24.540Z,9.02
2022-11-09T18:58:57.965Z,16.70
2022-11-09T19:01:27.687Z,6.13
2022-11-09T19:03:59.745Z,7.35
2022-11-09T19:06:29.519Z,45.28
2022-11-09T19:09:11.469Z,17.13
2022-11-09T19:11:40.954Z,26.20
2022-11-09T19:14:13.199Z,36.40
2022-11-09T19:16:42.655Z,22.20
2022-11-09T19:19:14.057Z,14.75
2022-11-09T19:21:44.400Z,11.30
2022-11-09T19:24:14.777Z,10.45
2022-11-09T19:26:44.201Z,6.47
2022-11-09T19:29:16.997Z,6.28
2022-11-09T19:31:47.215Z,5.38
2022-11-09T19:34:17.612Z,8.60
2022-11-09T19:36:47.416Z,6.43
2022-11-09T19:39:17.071Z,7.47
2022-11-09T19:41:46.606Z,6.35
2022-11-09T19:44:19.096Z,6.20
2022-11-09T19:46:48.619Z,5.63
2022-11-09T19:49:18.045Z,6.10
2022-11-09T19:51:47.758Z,6.40
2022-11-09T19:54:17.191Z,6.32
2022-11-09T19:56:46.663Z,5.85
2022-11-09T19:59:20.777Z,13.88
2022-11-09T20:01:50.459Z,11.20
2022-11-09T20:04:19.885Z,11.10
2022-11-09T20:06:49.349Z,10.63
2022-11-09T20:09:18.835Z,9.02
2022-11-09T20:12:00.918Z,8.73
2022-11-09T20:14:32.969Z,7.20
2022-11-09T20:17:03.692Z,8.73
2022-11-09T20:19:33.286Z,10.07
2022-11-09T20:22:02.954Z,8.88
2022-11-09T20:24:32.395Z,7.30
2022-11-09T20:27:02.072Z,6.07
2022-11-09T20:29:34.144Z,5.60
2022-11-09T20:32:03.607Z,4.13
2022-11-09T20:34:33.030Z,4.28
2022-11-09T20:37:02.487Z,4.32
2022-11-09T20:39:31.956Z,4.00
2022-11-09T20:42:01.426Z,3.92
2022-11-09T20:44:30.885Z,5.35
2022-11-09T20:47:02.927Z,5.88
2022-11-09T20:49:32.391Z,4.68
2022-11-09T20:52:01.853Z,4.28
2022-11-09T20:54:31.278Z,3.42
2022-11-09T20:57:00.749Z,3.22
2022-11-09T20:59:30.173Z,2.92
2022-11-09T21:02:02.250Z,3.05
2022-11-09T21:04:31.940Z,2.95
2022-11-09T21:07:01.606Z,2.55
2022-11-09T21:09:31.108Z,3.08
2022-11-09T21:12:12.839Z,3.10
2022-11-09T21:14:42.295Z,3.00
2022-11-09T21:17:16.091Z,2.78
2022-11-09T21:19:45.528Z,2.30
2022-11-09T21:22:15.236Z,2.58
2022-11-09T21:24:57.165Z,3.13
2022-11-09T21:27:39.937Z,3.45
2022-11-09T21:30:12.680Z,3.80
2022-11-09T21:32:44.777Z,3.25
2022-11-09T21:35:14.294Z,3.35
2022-11-09T21:37:43.736Z,3.58
2022-11-09T21:40:14.071Z,3.40
2022-11-09T21:42:43.508Z,2.92
2022-11-09T21:45:13.236Z,2.88
2022-11-09T21:47:45.302Z,2.90
2022-11-09T21:50:14.768Z,2.95
2022-11-09T21:52:44.465Z,3.30
2022-11-09T21:55:13.942Z,3.08
2022-11-09T21:57:43.402Z,3.10
2022-11-09T22:00:14.272Z,3.40
2022-11-09T22:02:46.336Z,3.50
2022-11-09T22:05:21.735Z,3.70
2022-11-09T22:07:52.302Z,3.28
2022-11-09T22:10:21.907Z,4.40
2022-11-09T22:13:03.838Z,3.63
2022-11-09T22:15:45.787Z,5.80
2022-11-09T22:18:38.090Z,4.80
2022-11-09T22:21:05.037Z,4.82
2022-11-09T22:23:35.327Z,3.90
2022-11-09T22:26:04.792Z,3.40
2022-11-09T22:28:34.912Z,3.58
2022-11-09T22:31:04.347Z,3.50
2022-11-09T22:33:36.440Z,4.03
2022-11-09T22:36:07.197Z,5.13
2022-11-09T22:38:36.695Z,6.00
2022-11-09T22:41:07.248Z,6.53
2022-11-09T22:43:36.768Z,7.15
2022-11-09T22:46:06.734Z,11.50
2022-11-09T22:48:39.143Z,7.80
2022-11-09T22:51:08.993Z,6.60
2022-11-09T22:53:38.470Z,6.20
2022-11-09T22:56:08.382Z,4.25
2022-11-09T22:58:37.850Z,8.10
2022-11-09T23:01:09.113Z,5.65
2022-11-09T23:03:41.208Z,3.65
2022-11-09T23:06:11.713Z,2.78
2022-11-09T23:08:41.367Z,2.72
2022-11-09T23:11:13.363Z,2.80
2022-11-09T23:13:43.501Z,2.97
2022-11-09T23:16:13.633Z,2.60
2022-11-09T23:18:55.302Z,2.22
2022-11-09T23:21:29.374Z,2.50
2022-11-09T23:23:59.563Z,2.30
2022-11-09T23:26:26.541Z,2.50
2022-11-09T23:28:56.090Z,2.50
2022-11-09T23:31:27.069Z,2.22
2022-11-09T23:33:59.946Z,2.40
2022-11-09T23:36:29.511Z,2.53
2022-11-09T23:38:59.186Z,2.60
2022-11-09T23:41:28.609Z,3.00
2022-11-09T23:43:58.401Z,2.80
2022-11-09T23:46:27.855Z,3.15
2022-11-09T23:48:59.906Z,3.35
2022-11-09T23:51:29.336Z,2.78
2022-11-09T23:53:58.805Z,2.90
2022-11-09T23:56:28.243Z,2.80
2022-11-09T23:58:57.727Z,2.83
